createdAt,value
2019-01-18T00:02:32.085Z,2.80
2019-01-18T00:05:13.828Z,2.40
2019-01-18T00:07:47.344Z,2.67
2019-01-18T00:10:20.442Z,2.30
2019-01-18T00:13:03.061Z,2.10
2019-01-18T00:15:45.463Z,2.17
2019-01-18T00:18:18.970Z,1.83
2019-01-18T00:20:52.635Z,2.30
2019-01-18T00:23:26.786Z,2.23
2019-01-18T00:26:09.593Z,2.20
2019-01-18T00:28:51.898Z,2.13
2019-01-18T00:31:25.454Z,2.40
2019-01-18T00:33:58.615Z,2.07
2019-01-18T00:36:33.751Z,2.40
2019-01-18T00:39:17.570Z,2.17
2019-01-18T00:41:50.630Z,2.33
2019-01-18T00:44:23.846Z,2.30
2019-01-18T00:46:57.902Z,2.13
2019-01-18T00:49:32.267Z,2.37
2019-01-18T00:52:11.599Z,2.80
2019-01-18T00:54:53.940Z,2.57
2019-01-18T00:57:27.538Z,2.10
2019-01-18T01:00:02.987Z,2.20
2019-01-18T01:02:36.753Z,2.17
2019-01-18T01:05:10.837Z,2.17
2019-01-18T01:07:53.595Z,2.30
2019-01-18T01:10:27.756Z,2.60
2019-01-18T01:13:10.191Z,2.20
2019-01-18T01:15:55.298Z,2.10
2019-01-18T01:18:28.473Z,2.33
2019-01-18T01:21:02.687Z,2.10
2019-01-18T01:23:42.120Z,2.30
2019-01-18T01:26:16.302Z,2.20
2019-01-18T01:28:50.865Z,1.70
2019-01-18T01:31:26.173Z,2.00
2019-01-18T01:34:00.083Z,1.93
2019-01-18T01:36:33.534Z,1.90
2019-01-18T01:39:10.795Z,2.20
2019-01-18T01:41:44.290Z,1.83
2019-01-18T01:44:17.781Z,1.90
2019-01-18T01:46:50.955Z,1.80
2019-01-18T01:49:23.774Z,2.00
2019-01-18T01:51:58.300Z,2.23
2019-01-18T01:54:33.989Z,2.30
2019-01-18T01:57:09.280Z,1.90
2019-01-18T01:59:49.670Z,1.90
2019-01-18T02:02:20.617Z,1.63
2019-01-18T02:04:54.692Z,1.97
2019-01-18T02:07:27.854Z,1.80
2019-01-18T02:10:01.370Z,1.87
2019-01-18T02:12:34.478Z,2.00
2019-01-18T02:15:22.264Z,1.80
2019-01-18T02:17:55.520Z,1.77
2019-01-18T02:20:38.314Z,2.00
2019-01-18T02:23:22.238Z,1.90
2019-01-18T02:25:58.973Z,1.60
2019-01-18T02:28:32.226Z,1.73
2019-01-18T02:31:05.447Z,2.10
2019-01-18T02:33:40.095Z,2.00
2019-01-18T02:36:23.743Z,2.37
2019-01-18T02:39:08.821Z,2.13
2019-01-18T02:41:42.402Z,2.50
2019-01-18T02:44:16.253Z,2.27
2019-01-18T02:46:50.447Z,1.80
2019-01-18T02:49:27.328Z,1.90
2019-01-18T02:52:09.860Z,2.27
2019-01-18T02:54:43.053Z,2.40
2019-01-18T02:57:17.493Z,2.70
2019-01-18T03:00:04.872Z,3.10
2019-01-18T03:02:36.106Z,3.03
2019-01-18T03:05:12.289Z,3.07
2019-01-18T03:07:55.273Z,3.07
2019-01-18T03:10:32.250Z,3.30
2019-01-18T03:13:18.773Z,3.30
2019-01-18T03:16:01.179Z,3.00
2019-01-18T03:18:47.791Z,2.47
2019-01-18T03:21:21.692Z,2.10
2019-01-18T03:23:56.152Z,2.17
2019-01-18T03:26:29.769Z,2.30
2019-01-18T03:29:04.624Z,2.10
2019-01-18T03:31:47.681Z,2.00
2019-01-18T03:34:30.159Z,1.97
2019-01-18T03:37:12.743Z,2.40
2019-01-18T03:39:55.134Z,2.20
2019-01-18T03:42:29.070Z,1.80
2019-01-18T03:45:02.834Z,2.10
2019-01-18T03:47:45.226Z,2.40
2019-01-18T03:50:24.060Z,2.20
2019-01-18T03:52:57.883Z,2.17
2019-01-18T03:55:42.405Z,2.10
2019-01-18T03:58:24.696Z,2.30
2019-01-18T04:00:57.977Z,2.00
2019-01-18T04:03:31.498Z,2.00
2019-01-18T04:06:06.369Z,2.50
2019-01-18T04:08:39.853Z,2.27
2019-01-18T04:11:11.349Z,2.20
2019-01-18T04:13:55.184Z,2.67
2019-01-18T04:16:38.177Z,2.20
2019-01-18T04:19:12.915Z,2.37
2019-01-18T04:21:48.027Z,2.90
2019-01-18T04:24:21.501Z,2.30
2019-01-18T04:27:01.001Z,2.10
2019-01-18T04:29:35.413Z,2.37
2019-01-18T04:32:09.023Z,2.63
2019-01-18T04:34:42.258Z,2.10
2019-01-18T04:37:18.205Z,2.80
2019-01-18T04:39:54.135Z,1.97
2019-01-18T04:42:28.723Z,2.40
2019-01-18T04:45:13.275Z,2.00
2019-01-18T04:47:55.845Z,2.20
2019-01-18T04:50:29.555Z,2.13
2019-01-18T04:53:12.202Z,2.03
2019-01-18T04:55:57.984Z,2.10
2019-01-18T04:58:34.529Z,1.77
2019-01-18T05:01:08.191Z,2.27
2019-01-18T05:03:45.467Z,2.27
2019-01-18T05:06:29.085Z,2.40
2019-01-18T05:09:11.219Z,2.10
2019-01-18T05:11:49.546Z,2.43
2019-01-18T05:14:23.605Z,2.10
2019-01-18T05:16:57.417Z,2.00
2019-01-18T05:19:39.655Z,2.10
2019-01-18T05:22:12.771Z,2.77
2019-01-18T05:24:49.557Z,2.50
2019-01-18T05:27:29.963Z,3.03
2019-01-18T05:30:03.200Z,2.10
2019-01-18T05:32:36.301Z,2.30
2019-01-18T05:35:18.800Z,2.60
2019-01-18T05:38:01.890Z,2.67
2019-01-18T05:40:44.101Z,2.90
2019-01-18T05:43:16.639Z,3.07
2019-01-18T05:46:00.330Z,3.17
2019-01-18T05:48:33.995Z,2.70
2019-01-18T05:51:08.133Z,3.53
2019-01-18T05:53:51.116Z,3.80
2019-01-18T05:56:24.228Z,3.40
2019-01-18T05:59:13.355Z,3.70
2019-01-18T06:01:46.813Z,3.40
2019-01-18T06:04:19.927Z,3.57
2019-01-18T06:07:05.466Z,3.20
2019-01-18T06:09:38.771Z,3.53
2019-01-18T06:12:11.860Z,3.73
2019-01-18T06:14:45.018Z,3.47
2019-01-18T06:17:29.649Z,3.60
2019-01-18T06:20:13.569Z,3.67
2019-01-18T06:22:47.408Z,4.13
2019-01-18T06:25:21.191Z,3.80
2019-01-18T06:27:55.176Z,3.53
2019-01-18T06:30:38.024Z,3.70
2019-01-18T06:33:11.957Z,3.70
2019-01-18T06:35:55.195Z,3.60
2019-01-18T06:38:38.567Z,3.70
2019-01-18T06:41:23.733Z,3.87
2019-01-18T06:43:57.577Z,3.73
2019-01-18T06:46:40.336Z,3.63
2019-01-18T06:49:25.820Z,4.10
2019-01-18T06:51:59.105Z,5.10
2019-01-18T06:54:32.243Z,5.10
2019-01-18T06:57:14.125Z,4.97
2019-01-18T06:59:47.897Z,5.30
2019-01-18T07:02:22.496Z,5.00
2019-01-18T07:04:56.036Z,5.53
2019-01-18T07:07:29.739Z,6.60
2019-01-18T07:10:03.153Z,7.20
2019-01-18T07:12:36.645Z,7.00
2019-01-18T07:15:11.179Z,6.30
2019-01-18T07:17:45.398Z,5.50
2019-01-18T07:20:19.977Z,5.27
2019-01-18T07:22:53.095Z,5.13
2019-01-18T07:25:30.858Z,4.90
2019-01-18T07:28:04.330Z,5.00
2019-01-18T07:30:48.115Z,5.30
2019-01-18T07:33:21.364Z,5.10
2019-01-18T07:35:54.728Z,4.83
2019-01-18T07:38:27.884Z,5.10
2019-01-18T07:41:11.861Z,5.20
2019-01-18T07:43:53.908Z,5.37
2019-01-18T07:46:27.034Z,4.40
2019-01-18T07:49:00.954Z,5.27
2019-01-18T07:51:34.087Z,4.40
2019-01-18T07:54:07.707Z,4.77
2019-01-18T07:56:39.720Z,4.17
2019-01-18T07:59:21.611Z,4.40
2019-01-18T08:01:54.728Z,4.43
2019-01-18T08:04:28.888Z,4.30
2019-01-18T08:07:02.048Z,4.53
2019-01-18T08:09:35.293Z,4.60
2019-01-18T08:12:20.807Z,4.23
2019-01-18T08:15:03.869Z,4.90
2019-01-18T08:17:48.777Z,4.47
2019-01-18T08:20:31.996Z,4.77
2019-01-18T08:23:14.175Z,4.23
2019-01-18T08:25:45.643Z,4.50
2019-01-18T08:28:19.189Z,5.20
2019-01-18T08:30:52.632Z,4.97
2019-01-18T08:33:26.168Z,4.33
2019-01-18T08:35:59.563Z,5.37
2019-01-18T08:38:41.848Z,5.07
2019-01-18T08:41:15.033Z,4.93
2019-01-18T08:43:48.110Z,4.77
2019-01-18T08:46:22.911Z,4.60
2019-01-18T08:49:05.313Z,4.50
2019-01-18T08:51:38.438Z,4.63
2019-01-18T08:54:12.144Z,4.63
2019-01-18T08:56:45.730Z,4.50
2019-01-18T08:59:18.845Z,4.40
2019-01-18T09:02:01.934Z,4.07
2019-01-18T09:04:35.031Z,3.90
2019-01-18T09:07:08.158Z,4.20
2019-01-18T09:09:50.175Z,4.10
2019-01-18T09:12:23.329Z,3.87
2019-01-18T09:14:56.425Z,4.60
2019-01-18T09:17:43.122Z,3.83
2019-01-18T09:20:27.276Z,4.20
2019-01-18T09:23:00.937Z,4.83
2019-01-18T09:25:43.588Z,4.57
2019-01-18T09:28:25.991Z,4.17
2019-01-18T09:30:59.108Z,4.70
2019-01-18T09:33:32.885Z,4.17
2019-01-18T09:36:07.616Z,4.43
2019-01-18T09:38:52.120Z,4.00
2019-01-18T09:41:25.238Z,4.47
2019-01-18T09:43:58.318Z,4.10
2019-01-18T09:46:41.391Z,3.80
2019-01-18T09:49:24.395Z,4.60
2019-01-18T09:52:06.530Z,4.30
2019-01-18T09:54:39.636Z,4.10
2019-01-18T09:57:12.725Z,3.97
2019-01-18T09:59:55.041Z,3.87
2019-01-18T10:02:28.152Z,4.10
2019-01-18T10:05:01.890Z,4.20
2019-01-18T10:07:35.917Z,4.10
2019-01-18T10:10:12.180Z,4.10
2019-01-18T10:12:45.788Z,4.13
2019-01-18T10:15:21.273Z,4.10
2019-01-18T10:18:00.624Z,3.70
2019-01-18T10:20:29.446Z,4.10
2019-01-18T10:23:12.338Z,3.53
2019-01-18T10:25:45.865Z,3.83
2019-01-18T10:28:20.760Z,4.00
2019-01-18T10:30:56.826Z,3.53
2019-01-18T10:33:40.950Z,3.87
2019-01-18T10:36:14.070Z,3.60
2019-01-18T10:38:56.518Z,4.23
2019-01-18T10:41:39.457Z,4.30
2019-01-18T10:44:12.926Z,4.10
2019-01-18T10:46:46.094Z,4.03
2019-01-18T10:49:19.297Z,4.60
2019-01-18T10:52:01.443Z,4.13
2019-01-18T10:54:35.018Z,4.30
2019-01-18T10:57:08.079Z,3.93
2019-01-18T10:59:51.217Z,3.80
2019-01-18T11:02:24.334Z,4.33
2019-01-18T11:04:57.872Z,4.13
2019-01-18T11:07:31.456Z,3.97
2019-01-18T11:10:06.041Z,3.80
2019-01-18T11:12:40.282Z,4.20
2019-01-18T11:15:14.628Z,4.33
2019-01-18T11:17:57.534Z,3.90
2019-01-18T11:20:45.319Z,3.83
2019-01-18T11:23:18.926Z,4.27
2019-01-18T11:25:52.353Z,3.93
2019-01-18T11:28:25.499Z,3.90
2019-01-18T11:31:07.478Z,3.80
2019-01-18T11:33:50.695Z,3.53
2019-01-18T11:36:23.827Z,3.60
2019-01-18T11:38:56.881Z,3.50
2019-01-18T11:41:39.138Z,3.77
2019-01-18T11:44:12.672Z,3.60
2019-01-18T11:46:46.049Z,3.73
2019-01-18T11:49:29.165Z,3.50
2019-01-18T11:52:02.287Z,3.97
2019-01-18T11:54:35.341Z,3.60
2019-01-18T11:57:17.159Z,3.53
2019-01-18T12:00:01.723Z,3.40
2019-01-18T12:02:46.251Z,3.60
2019-01-18T12:05:28.700Z,2.90
2019-01-18T12:08:02.158Z,3.10
2019-01-18T12:10:35.425Z,3.27
2019-01-18T12:13:09.011Z,3.37
2019-01-18T12:15:42.903Z,3.10
2019-01-18T12:18:16.689Z,2.80
2019-01-18T12:20:49.992Z,3.13
2019-01-18T12:23:23.613Z,3.17
2019-01-18T12:25:55.197Z,3.20
2019-01-18T12:28:37.904Z,3.07
2019-01-18T12:31:21.721Z,3.27
2019-01-18T12:34:04.078Z,3.50
2019-01-18T12:36:37.195Z,3.30
2019-01-18T12:39:11.499Z,3.53
2019-01-18T12:41:44.974Z,3.07
2019-01-18T12:44:18.412Z,3.13
2019-01-18T12:46:53.361Z,3.83
2019-01-18T12:49:26.872Z,3.10
2019-01-18T12:52:00.479Z,3.27
2019-01-18T12:54:36.977Z,3.43
2019-01-18T12:57:19.446Z,3.57
2019-01-18T13:00:02.125Z,3.37
2019-01-18T13:02:45.145Z,2.97
2019-01-18T13:05:21.966Z,3.47
2019-01-18T13:08:04.310Z,3.20
2019-01-18T13:10:38.083Z,3.80
2019-01-18T13:13:11.528Z,3.17
2019-01-18T13:15:52.876Z,3.53
2019-01-18T13:18:27.164Z,3.60
2019-01-18T13:21:09.570Z,3.17
2019-01-18T13:23:43.009Z,3.37
2019-01-18T13:26:16.199Z,2.90
2019-01-18T13:28:50.029Z,3.03
2019-01-18T13:31:23.125Z,3.17
2019-01-18T13:33:57.972Z,3.47
2019-01-18T13:36:41.111Z,3.03
2019-01-18T13:39:12.931Z,3.10
2019-01-18T13:41:46.361Z,3.10
2019-01-18T13:44:19.939Z,3.10
2019-01-18T13:46:53.422Z,3.50
2019-01-18T13:49:27.530Z,3.30
2019-01-18T13:52:01.071Z,3.33
2019-01-18T13:54:44.536Z,3.50
2019-01-18T13:57:17.830Z,3.47
2019-01-18T13:59:50.887Z,4.37
2019-01-18T14:02:24.809Z,3.63
2019-01-18T14:05:07.889Z,3.60
2019-01-18T14:07:41.040Z,2.93
2019-01-18T14:10:28.210Z,3.47
2019-01-18T14:13:01.490Z,3.00
2019-01-18T14:15:37.147Z,3.67
2019-01-18T14:18:19.403Z,2.97
2019-01-18T14:20:54.162Z,3.20
2019-01-18T14:23:27.605Z,2.80
2019-01-18T14:26:10.265Z,3.10
2019-01-18T14:28:53.585Z,3.07
2019-01-18T14:31:26.756Z,3.17
2019-01-18T14:33:59.817Z,2.90
2019-01-18T14:36:33.045Z,3.53
2019-01-18T14:39:15.514Z,3.60
2019-01-18T14:41:50.019Z,2.87
2019-01-18T14:44:24.065Z,3.50
2019-01-18T14:46:57.339Z,3.33
2019-01-18T14:49:32.542Z,2.90
2019-01-18T14:52:06.150Z,3.00
2019-01-18T14:54:39.642Z,2.90
2019-01-18T14:57:12.876Z,3.57
2019-01-18T14:59:47.901Z,3.07
2019-01-18T15:02:30.356Z,3.30
2019-01-18T15:05:03.553Z,3.40
2019-01-18T15:07:38.090Z,3.33
2019-01-18T15:10:21.700Z,3.37
2019-01-18T15:13:13.240Z,3.23
2019-01-18T15:15:46.819Z,3.90
2019-01-18T15:18:21.288Z,3.00
2019-01-18T15:21:09.997Z,2.90
2019-01-18T15:23:54.556Z,3.10
2019-01-18T15:26:37.172Z,3.87
2019-01-18T15:29:12.845Z,3.40
2019-01-18T15:31:46.959Z,3.60
2019-01-18T15:34:21.599Z,3.70
2019-01-18T15:37:03.327Z,3.83
2019-01-18T15:39:36.747Z,4.03
2019-01-18T15:42:10.165Z,4.10
2019-01-18T15:44:44.124Z,4.37
2019-01-18T15:47:28.132Z,3.50
2019-01-18T15:50:20.209Z,3.93
2019-01-18T15:52:57.348Z,3.47
2019-01-18T15:55:31.256Z,3.63
2019-01-18T15:58:13.894Z,5.40
2019-01-18T16:00:47.152Z,8.80
2019-01-18T16:03:21.178Z,10.73
2019-01-18T16:05:55.705Z,8.20
2019-01-18T16:08:29.659Z,9.20
2019-01-18T16:11:03.506Z,6.83
2019-01-18T16:13:38.949Z,5.37
2019-01-18T16:16:25.435Z,4.43
2019-01-18T16:18:59.177Z,4.60
2019-01-18T16:21:32.460Z,5.23
2019-01-18T16:24:14.880Z,4.17
2019-01-18T16:26:48.367Z,4.27
2019-01-18T16:29:21.450Z,4.00
2019-01-18T16:32:03.202Z,4.77
2019-01-18T16:34:36.474Z,4.03
2019-01-18T16:37:09.534Z,4.63
2019-01-18T16:39:55.283Z,4.53
2019-01-18T16:42:30.692Z,5.13
2019-01-18T16:45:04.365Z,5.20
2019-01-18T16:47:37.603Z,5.40
2019-01-18T16:50:12.347Z,5.50
2019-01-18T16:52:45.859Z,5.30
2019-01-18T16:55:28.797Z,5.47
2019-01-18T16:58:11.978Z,4.97
2019-01-18T17:00:56.560Z,4.87
2019-01-18T17:03:30.529Z,5.20
2019-01-18T17:06:04.209Z,5.13
2019-01-18T17:08:37.675Z,5.00
2019-01-18T17:11:11.188Z,4.70
2019-01-18T17:13:45.415Z,5.60
2019-01-18T17:16:18.676Z,5.83
2019-01-18T17:18:52.284Z,9.90
2019-01-18T17:21:27.494Z,10.87
2019-01-18T17:24:11.114Z,9.97
2019-01-18T17:26:44.919Z,8.27
2019-01-18T17:29:27.838Z,6.90
2019-01-18T17:32:04.860Z,5.97
2019-01-18T17:34:38.211Z,5.30
2019-01-18T17:37:21.139Z,4.90
2019-01-18T17:40:19.818Z,5.57
2019-01-18T17:43:30.186Z,5.20
2019-01-18T17:46:35.649Z,5.20
2019-01-18T17:49:57.744Z,4.47
2019-01-18T17:53:17.983Z,5.33
2019-01-18T17:56:36.814Z,4.87
2019-01-18T18:00:13.195Z,5.07
2019-01-18T18:03:37.768Z,4.83
2019-01-18T18:06:51.360Z,5.17
2019-01-18T18:09:36.479Z,5.23
2019-01-18T18:12:26.624Z,5.57
2019-01-18T18:15:56.845Z,5.47
2019-01-18T18:19:14.429Z,4.90
2019-01-18T18:22:12.470Z,4.47
2019-01-18T18:25:13.910Z,5.00
2019-01-18T18:28:40.076Z,4.90
2019-01-18T18:31:46.741Z,4.77
2019-01-18T18:35:06.362Z,4.93
2019-01-18T18:38:28.299Z,5.47
2019-01-18T18:41:35.537Z,5.57
2019-01-18T18:44:24.596Z,5.20
2019-01-18T18:47:25.219Z,6.13
2019-01-18T18:50:32.100Z,5.13
2019-01-18T18:53:22.306Z,5.17
2019-01-18T18:56:25.303Z,5.60
2019-01-18T18:59:26.509Z,5.37
2019-01-18T19:02:45.900Z,5.23
2019-01-18T19:06:11.946Z,5.80
2019-01-18T19:09:24.889Z,5.80
2019-01-18T19:12:47.661Z,5.20
2019-01-18T19:15:42.589Z,5.40
2019-01-18T19:18:41.327Z,5.93
2019-01-18T19:22:08.026Z,5.73
2019-01-18T19:25:01.966Z,6.17
2019-01-18T19:28:18.699Z,5.77
2019-01-18T19:31:31.302Z,5.33
2019-01-18T19:35:01.119Z,5.60
2019-01-18T19:38:21.601Z,6.40
2019-01-18T19:41:10.830Z,6.40
2019-01-18T19:44:28.142Z,6.93
2019-01-18T19:47:39.549Z,6.90
2019-01-18T19:50:50.065Z,7.27
2019-01-18T19:54:02.557Z,7.07
2019-01-18T19:57:18.277Z,7.50
2019-01-18T20:00:46.036Z,7.30
2019-01-18T20:03:33.892Z,6.83
2019-01-18T20:07:06.215Z,7.43
2019-01-18T20:10:23.949Z,8.83
2019-01-18T20:13:42.817Z,8.60
2019-01-18T20:16:58.657Z,9.20
2019-01-18T20:20:17.679Z,8.80
2019-01-18T20:23:30.357Z,9.10
2019-01-18T20:26:40.580Z,8.13
2019-01-18T20:30:07.359Z,8.57
2019-01-18T20:33:27.511Z,8.70
2019-01-18T20:36:50.829Z,8.20
2019-01-18T20:40:06.679Z,8.13
2019-01-18T20:43:38.707Z,8.37
2019-01-18T20:47:05.132Z,8.87
2019-01-18T20:50:15.895Z,8.80
2019-01-18T20:53:38.884Z,9.27
2019-01-18T20:57:02.277Z,9.33
2019-01-18T20:59:47.238Z,9.03
2019-01-18T21:03:17.733Z,8.70
2019-01-18T21:05:57.356Z,9.27
2019-01-18T21:09:26.015Z,10.70
2019-01-18T21:12:18.997Z,10.37
2019-01-18T21:15:09.877Z,9.23
2019-01-18T21:18:13.549Z,9.10
2019-01-18T21:21:31.279Z,9.27
2019-01-18T21:25:01.153Z,9.37
2019-01-18T21:28:19.978Z,9.47
2019-01-18T21:31:24.984Z,9.07
2019-01-18T21:34:15.270Z,8.27
2019-01-18T21:37:18.070Z,8.67
2019-01-18T21:40:09.924Z,8.80
2019-01-18T21:42:59.448Z,9.00
2019-01-18T21:46:08.556Z,8.37
2019-01-18T21:49:12.423Z,8.07
2019-01-18T21:52:29.461Z,7.80
2019-01-18T21:55:34.482Z,8.10
2019-01-18T21:58:32.822Z,8.37
2019-01-18T22:02:02.320Z,7.53
2019-01-18T22:04:54.002Z,8.73
2019-01-18T22:07:56.485Z,8.20
2019-01-18T22:11:07.950Z,8.33
2019-01-18T22:14:11.401Z,9.03
2019-01-18T22:17:27.119Z,8.10
2019-01-18T22:20:26.887Z,8.50
2019-01-18T22:23:40.640Z,7.83
2019-01-18T22:26:59.782Z,8.20
2019-01-18T22:30:04.987Z,7.87
2019-01-18T22:33:25.062Z,7.90
2019-01-18T22:36:36.038Z,8.87
2019-01-18T22:39:58.352Z,7.43
2019-01-18T22:43:28.708Z,8.57
2019-01-18T22:46:37.764Z,8.17
2019-01-18T22:49:50.954Z,8.60
2019-01-18T22:52:59.877Z,8.60
2019-01-18T22:55:50.039Z,9.10
2019-01-18T22:59:13.976Z,8.50
2019-01-18T23:02:19.992Z,8.57
2019-01-18T23:05:32.218Z,9.33
2019-01-18T23:08:41.758Z,8.40
2019-01-18T23:11:51.655Z,8.37
2019-01-18T23:14:50.420Z,9.20
2019-01-18T23:18:10.143Z,8.37
2019-01-18T23:21:29.243Z,9.00
2019-01-18T23:24:52.182Z,8.10
2019-01-18T23:28:22.104Z,8.53
2019-01-18T23:31:21.243Z,8.30
2019-01-18T23:34:19.822Z,9.13
2019-01-18T23:37:02.058Z,8.87
2019-01-18T23:40:11.858Z,9.30
2019-01-18T23:43:34.735Z,9.50
2019-01-18T23:47:14.015Z,8.57
2019-01-18T23:50:16.086Z,8.73
2019-01-18T23:53:16.180Z,9.00
2019-01-18T23:56:16.785Z,8.40
2019-01-18T23:59:40.331Z,9.07
